Manhattan, Montana
Current Conditions -  °F | °C
As of 1:56 PM on Tuesday 27 Jan 2015 (Local Time) from KBZN Reporting Station
Clear Clear  
Wind Chill: 38°   Ceiling: Unl
Heat Index: 41°   Visibility: 10mi
Dew Point: 33°   Wind: 5mph
Humidity: 73%   Direction: 120°ESE
Pressure: 29.98"   Gusts: NA
Location:  45.86°N, 111.33°W
Report Text: KBZN 272056Z 12004KT 10SM CLR 05/01 A2998 RMK AO2 SLP175 T00500006 58018
Loading
Personal Weather Stations






























Interactive Weather Map New forecast layout! Learn more

10-Day Weather Forecast

Advertisements
Track Severe Weather on mobile